This is the latest recevied weather packets stored in our database for station/object DB0ROB-10. If no packets are shown the sender has not sent any weather packets the latest 1 day(s).
| Time | Temp. | Humidity | Pressure | Rain* | Wind** | Luminosity | Snow |
|---|---|---|---|---|---|---|---|
| 1778095005 | 7.78° C | 87% | 1009 hPa | - | - | - | - |
| 1778093205 | 7.78° C | 88% | 1008.8 hPa | - | - | - | - |
| 1778092305 | 8.33° C | 86% | 1008.6 hPa | - | - | - | - |
| 1778091404 | 7.78° C | 86% | 1008.5 hPa | - | - | - | - |
| 1778090504 | 7.78° C | 86% | 1008.5 hPa | - | - | - | - |
| 1778087803 | 8.89° C | 86% | 1008.2 hPa | - | - | - | - |
| 1778086903 | 8.89° C | 86% | 1008.1 hPa | - | - | - | - |
| 1778086003 | 8.89° C | 87% | 1008.1 hPa | - | - | - | - |
| 1778085102 | 8.89° C | 88% | 1008.1 hPa | - | - | - | - |
| 1778082401 | 10° C | 85% | 1007.8 hPa | - | - | - | - |
| 1778081501 | 10° C | 87% | 1007.7 hPa | - | - | - | - |
| 1778078799 | 10.56° C | 81% | 1007.7 hPa | - | - | - | - |
| 1778077899 | 10.56° C | 83% | 1007.5 hPa | - | - | - | - |
| 1778076999 | 10° C | 83% | 1007.3 hPa | - | - | - | - |
| 1778075205 | 10.56° C | 75% | 1007.3 hPa | - | - | - | - |
| 1778074305 | 11.11° C | 71% | 1007.3 hPa | - | - | - | - |
| 1778073405 | 11.11° C | 70% | 1007 hPa | - | - | - | - |
| 1778068903 | 14.44° C | 52% | 1006.6 hPa | - | - | - | - |
| 1778068003 | 13.89° C | 50% | 1006.7 hPa | - | - | - | - |
| 1778066202 | 12.78° C | 71% | 1007 hPa | - | - | - | - |
| 1778063500 | 15° C | 55% | 1007.1 hPa | - | - | - | - |
| 1778060799 | 16.67° C | 48% | 1007.3 hPa | - | - | - | - |
| 1778059899 | 18.89° C | 43% | 1007.1 hPa | - | - | - | - |
| 1778058999 | 16.67° C | 49% | 1007.2 hPa | - | - | - | - |
| 1778058099 | 17.78° C | 52% | 1007.2 hPa | - | - | - | - |
* Rain since midnight (hover to see other rain measurements)
** Current wind speed in m/s (hover to see current wind gust speed)